sensor_id;sensor_type;location;lat;lon;timestamp;P1;durP1;ratioP1;P2;durP2;ratioP2
62790;SDS011;48830;53.426;10.300;2022-12-24T00:00:19;16.50;;;7.97;;
62790;SDS011;48830;53.426;10.300;2022-12-24T00:02:45;16.47;;;7.93;;
62790;SDS011;48830;53.426;10.300;2022-12-24T00:05:10;17.13;;;8.30;;
62790;SDS011;48830;53.426;10.300;2022-12-24T00:07:36;16.10;;;8.70;;
62790;SDS011;48830;53.426;10.300;2022-12-24T00:10:02;17.30;;;8.83;;
62790;SDS011;48830;53.426;10.300;2022-12-24T00:12:28;18.53;;;8.90;;
62790;SDS011;48830;53.426;10.300;2022-12-24T00:14:54;17.70;;;8.93;;
62790;SDS011;48830;53.426;10.300;2022-12-24T00:17:19;18.20;;;9.60;;
62790;SDS011;48830;53.426;10.300;2022-12-24T00:19:45;17.00;;;9.07;;
62790;SDS011;48830;53.426;10.300;2022-12-24T00:22:10;19.07;;;9.70;;
62790;SDS011;48830;53.426;10.300;2022-12-24T00:24:36;16.90;;;8.73;;
62790;SDS011;48830;53.426;10.300;2022-12-24T00:27:02;19.13;;;8.93;;
62790;SDS011;48830;53.426;10.300;2022-12-24T00:29:27;19.47;;;9.73;;
62790;SDS011;48830;53.426;10.300;2022-12-24T00:31:53;17.83;;;9.87;;
62790;SDS011;48830;53.426;10.300;2022-12-24T00:34:18;20.17;;;11.00;;
62790;SDS011;48830;53.426;10.300;2022-12-24T00:36:44;19.10;;;9.80;;
62790;SDS011;48830;53.426;10.300;2022-12-24T00:39:09;19.73;;;10.70;;
62790;SDS011;48830;53.426;10.300;2022-12-24T00:41:36;23.23;;;11.43;;
62790;SDS011;48830;53.426;10.300;2022-12-24T00:44:03;19.83;;;10.80;;
62790;SDS011;48830;53.426;10.300;2022-12-24T00:46:31;21.67;;;9.93;;
62790;SDS011;48830;53.426;10.300;2022-12-24T00:48:58;26.17;;;11.57;;
62790;SDS011;48830;53.426;10.300;2022-12-24T00:51:24;22.97;;;11.03;;
62790;SDS011;48830;53.426;10.300;2022-12-24T00:53:50;21.10;;;10.73;;
62790;SDS011;48830;53.426;10.300;2022-12-24T00:56:16;22.00;;;11.10;;
62790;SDS011;48830;53.426;10.300;2022-12-24T00:58:42;26.00;;;11.13;;
62790;SDS011;48830;53.426;10.300;2022-12-24T01:01:08;22.70;;;11.47;;
62790;SDS011;48830;53.426;10.300;2022-12-24T01:03:34;24.77;;;11.53;;
62790;SDS011;48830;53.426;10.300;2022-12-24T01:06:03;22.77;;;11.03;;
62790;SDS011;48830;53.426;10.300;2022-12-24T01:08:31;23.43;;;11.17;;
62790;SDS011;48830;53.426;10.300;2022-12-24T01:10:58;26.50;;;12.50;;
62790;SDS011;48830;53.426;10.300;2022-12-24T01:13:24;25.10;;;11.27;;
62790;SDS011;48830;53.426;10.300;2022-12-24T01:15:50;23.80;;;11.20;;
62790;SDS011;48830;53.426;10.300;2022-12-24T01:18:16;24.37;;;11.50;;
62790;SDS011;48830;53.426;10.300;2022-12-24T01:20:41;24.90;;;11.90;;
62790;SDS011;48830;53.426;10.300;2022-12-24T01:23:07;25.80;;;12.20;;
62790;SDS011;48830;53.426;10.300;2022-12-24T01:25:32;23.73;;;11.57;;
62790;SDS011;48830;53.426;10.300;2022-12-24T01:27:58;23.33;;;11.87;;
62790;SDS011;48830;53.426;10.300;2022-12-24T01:30:23;24.57;;;11.97;;
62790;SDS011;48830;53.426;10.300;2022-12-24T01:32:49;26.73;;;11.13;;
62790;SDS011;48830;53.426;10.300;2022-12-24T01:35:15;22.13;;;11.40;;
62790;SDS011;48830;53.426;10.300;2022-12-24T01:37:41;24.53;;;11.80;;
62790;SDS011;48830;53.426;10.300;2022-12-24T01:40:09;25.90;;;12.43;;
62790;SDS011;48830;53.426;10.300;2022-12-24T01:42:57;22.17;;;10.97;;
62790;SDS011;48830;53.426;10.300;2022-12-24T01:48:33;28.33;;;12.33;;
62790;SDS011;48830;53.426;10.300;2022-12-24T01:51:04;28.10;;;12.73;;
62790;SDS011;48830;53.426;10.300;2022-12-24T01:53:31;27.23;;;12.40;;
62790;SDS011;48830;53.426;10.300;2022-12-24T01:56:00;26.83;;;12.60;;
62790;SDS011;48830;53.426;10.300;2022-12-24T01:58:27;27.73;;;12.73;;
62790;SDS011;48830;53.426;10.300;2022-12-24T02:00:52;26.73;;;12.93;;
62790;SDS011;48830;53.426;10.300;2022-12-24T02:03:18;27.60;;;13.30;;
62790;SDS011;48830;53.426;10.300;2022-12-24T02:05:48;28.33;;;12.67;;
62790;SDS011;48830;53.426;10.300;2022-12-24T02:08:16;27.23;;;12.50;;
62790;SDS011;48830;53.426;10.300;2022-12-24T02:10:42;28.00;;;13.27;;
62790;SDS011;48830;53.426;10.300;2022-12-24T02:13:08;29.03;;;13.27;;
62790;SDS011;48830;53.426;10.300;2022-12-24T02:24:14;27.60;;;12.50;;
62790;SDS011;48830;53.426;10.300;2022-12-24T02:32:22;26.47;;;12.60;;
62790;SDS011;48830;53.426;10.300;2022-12-24T02:34:53;27.13;;;12.40;;
62790;SDS011;48830;53.426;10.300;2022-12-24T02:37:25;25.47;;;12.70;;
62790;SDS011;48830;53.426;10.300;2022-12-24T02:42:39;26.63;;;12.43;;
62790;SDS011;48830;53.426;10.300;2022-12-24T02:45:11;24.27;;;12.17;;
62790;SDS011;48830;53.426;10.300;2022-12-24T02:47:40;26.37;;;12.53;;
62790;SDS011;48830;53.426;10.300;2022-12-24T02:50:09;27.20;;;12.10;;
62790;SDS011;48830;53.426;10.300;2022-12-24T02:52:37;24.63;;;12.97;;
62790;SDS011;48830;53.426;10.300;2022-12-24T02:55:06;26.13;;;11.67;;
62790;SDS011;48830;53.426;10.300;2022-12-24T03:00:24;24.63;;;12.07;;
62790;SDS011;48830;53.426;10.300;2022-12-24T03:08:21;23.40;;;11.30;;
62790;SDS011;48830;53.426;10.300;2022-12-24T03:11:08;20.67;;;10.43;;
62790;SDS011;48830;53.426;10.300;2022-12-24T03:13:35;26.50;;;11.40;;
62790;SDS011;48830;53.426;10.300;2022-12-24T03:16:08;24.90;;;12.17;;
62790;SDS011;48830;53.426;10.300;2022-12-24T03:18:37;23.47;;;11.37;;
62790;SDS011;48830;53.426;10.300;2022-12-24T03:21:08;23.20;;;10.87;;
62790;SDS011;48830;53.426;10.300;2022-12-24T03:23:37;24.17;;;11.10;;
62790;SDS011;48830;53.426;10.300;2022-12-24T03:26:05;22.73;;;10.30;;
62790;SDS011;48830;53.426;10.300;2022-12-24T03:28:33;20.60;;;10.20;;
62790;SDS011;48830;53.426;10.300;2022-12-24T03:31:02;21.93;;;10.83;;
62790;SDS011;48830;53.426;10.300;2022-12-24T03:33:28;26.27;;;11.57;;
62790;SDS011;48830;53.426;10.300;2022-12-24T03:35:54;21.07;;;10.43;;
62790;SDS011;48830;53.426;10.300;2022-12-24T03:38:20;21.17;;;10.00;;
62790;SDS011;48830;53.426;10.300;2022-12-24T03:40:46;19.70;;;9.87;;
62790;SDS011;48830;53.426;10.300;2022-12-24T03:43:11;21.23;;;10.13;;
62790;SDS011;48830;53.426;10.300;2022-12-24T03:45:36;21.00;;;10.10;;
62790;SDS011;48830;53.426;10.300;2022-12-24T03:48:02;22.63;;;10.97;;
62790;SDS011;48830;53.426;10.300;2022-12-24T03:50:28;24.07;;;11.10;;
62790;SDS011;48830;53.426;10.300;2022-12-24T03:52:54;21.57;;;10.77;;
62790;SDS011;48830;53.426;10.300;2022-12-24T03:55:19;21.87;;;10.23;;
62790;SDS011;48830;53.426;10.300;2022-12-24T03:57:45;24.13;;;11.03;;
62790;SDS011;48830;53.426;10.300;2022-12-24T04:00:11;21.53;;;10.70;;
62790;SDS011;48830;53.426;10.300;2022-12-24T04:02:39;24.10;;;10.90;;
62790;SDS011;48830;53.426;10.300;2022-12-24T04:05:05;23.37;;;11.37;;
62790;SDS011;48830;53.426;10.300;2022-12-24T04:07:32;20.37;;;10.00;;
62790;SDS011;48830;53.426;10.300;2022-12-24T04:09:57;25.73;;;10.83;;
62790;SDS011;48830;53.426;10.300;2022-12-24T04:12:23;22.63;;;10.23;;
62790;SDS011;48830;53.426;10.300;2022-12-24T04:14:48;23.77;;;10.77;;
62790;SDS011;48830;53.426;10.300;2022-12-24T04:17:14;22.47;;;10.77;;
62790;SDS011;48830;53.426;10.300;2022-12-24T04:19:40;21.33;;;10.80;;
62790;SDS011;48830;53.426;10.300;2022-12-24T04:22:06;21.57;;;10.10;;
62790;SDS011;48830;53.426;10.300;2022-12-24T04:24:32;20.27;;;10.43;;
62790;SDS011;48830;53.426;10.300;2022-12-24T04:26:57;23.07;;;10.90;;
62790;SDS011;48830;53.426;10.300;2022-12-24T04:29:23;20.37;;;11.07;;
62790;SDS011;48830;53.426;10.300;2022-12-24T04:31:48;19.67;;;9.67;;
62790;SDS011;48830;53.426;10.300;2022-12-24T04:34:13;20.43;;;10.27;;
62790;SDS011;48830;53.426;10.300;2022-12-24T04:36:39;21.53;;;10.77;;
62790;SDS011;48830;53.426;10.300;2022-12-24T04:39:04;21.47;;;10.67;;
62790;SDS011;48830;53.426;10.300;2022-12-24T04:41:30;21.07;;;11.87;;
62790;SDS011;48830;53.426;10.300;2022-12-24T04:43:56;22.70;;;11.17;;
62790;SDS011;48830;53.426;10.300;2022-12-24T04:46:23;23.73;;;11.07;;
62790;SDS011;48830;53.426;10.300;2022-12-24T04:48:51;19.57;;;10.13;;
62790;SDS011;48830;53.426;10.300;2022-12-24T04:51:17;21.40;;;9.77;;
62790;SDS011;48830;53.426;10.300;2022-12-24T04:53:44;20.77;;;10.33;;
62790;SDS011;48830;53.426;10.300;2022-12-24T04:56:21;19.47;;;9.70;;
62790;SDS011;48830;53.426;10.300;2022-12-24T04:58:51;21.40;;;10.07;;
62790;SDS011;48830;53.426;10.300;2022-12-24T05:01:17;20.50;;;9.03;;
62790;SDS011;48830;53.426;10.300;2022-12-24T05:03:45;19.50;;;9.20;;
62790;SDS011;48830;53.426;10.300;2022-12-24T05:06:12;18.13;;;9.10;;
62790;SDS011;48830;53.426;10.300;2022-12-24T05:08:39;19.33;;;8.87;;
62790;SDS011;48830;53.426;10.300;2022-12-24T05:11:05;17.60;;;8.60;;
62790;SDS011;48830;53.426;10.300;2022-12-24T05:13:31;21.03;;;9.20;;
62790;SDS011;48830;53.426;10.300;2022-12-24T05:15:57;20.90;;;9.13;;
62790;SDS011;48830;53.426;10.300;2022-12-24T05:18:23;18.13;;;8.13;;
62790;SDS011;48830;53.426;10.300;2022-12-24T05:20:49;18.80;;;8.47;;
62790;SDS011;48830;53.426;10.300;2022-12-24T05:23:19;16.17;;;8.20;;
62790;SDS011;48830;53.426;10.300;2022-12-24T05:26:13;17.27;;;8.47;;
62790;SDS011;48830;53.426;10.300;2022-12-24T05:28:47;15.77;;;7.93;;
62790;SDS011;48830;53.426;10.300;2022-12-24T05:31:24;14.83;;;7.37;;
62790;SDS011;48830;53.426;10.300;2022-12-24T05:33:51;18.83;;;8.40;;
62790;SDS011;48830;53.426;10.300;2022-12-24T05:36:19;14.50;;;7.00;;
62790;SDS011;48830;53.426;10.300;2022-12-24T05:38:45;13.43;;;6.83;;
62790;SDS011;48830;53.426;10.300;2022-12-24T05:41:10;15.67;;;7.83;;
62790;SDS011;48830;53.426;10.300;2022-12-24T05:43:36;16.30;;;7.87;;
62790;SDS011;48830;53.426;10.300;2022-12-24T05:46:03;16.73;;;7.63;;
62790;SDS011;48830;53.426;10.300;2022-12-24T05:48:30;15.73;;;7.33;;
62790;SDS011;48830;53.426;10.300;2022-12-24T05:50:56;15.67;;;7.33;;
62790;SDS011;48830;53.426;10.300;2022-12-24T05:53:22;18.03;;;7.70;;
62790;SDS011;48830;53.426;10.300;2022-12-24T05:55:48;15.60;;;6.93;;
62790;SDS011;48830;53.426;10.300;2022-12-24T05:58:14;13.90;;;7.03;;
62790;SDS011;48830;53.426;10.300;2022-12-24T06:00:39;14.27;;;6.87;;
62790;SDS011;48830;53.426;10.300;2022-12-24T06:03:05;12.63;;;6.37;;
62790;SDS011;48830;53.426;10.300;2022-12-24T06:05:31;15.30;;;6.97;;
62790;SDS011;48830;53.426;10.300;2022-12-24T06:07:57;13.63;;;6.53;;
62790;SDS011;48830;53.426;10.300;2022-12-24T06:10:22;14.63;;;6.63;;
62790;SDS011;48830;53.426;10.300;2022-12-24T06:12:48;12.60;;;6.17;;
62790;SDS011;48830;53.426;10.300;2022-12-24T06:15:13;16.20;;;7.63;;
62790;SDS011;48830;53.426;10.300;2022-12-24T06:17:39;13.80;;;7.10;;
62790;SDS011;48830;53.426;10.300;2022-12-24T06:20:04;13.17;;;5.97;;
62790;SDS011;48830;53.426;10.300;2022-12-24T06:22:32;14.03;;;6.27;;
62790;SDS011;48830;53.426;10.300;2022-12-24T06:24:57;11.50;;;6.07;;
62790;SDS011;48830;53.426;10.300;2022-12-24T06:27:23;13.40;;;6.20;;
62790;SDS011;48830;53.426;10.300;2022-12-24T06:29:48;13.07;;;6.67;;
62790;SDS011;48830;53.426;10.300;2022-12-24T06:32:14;13.20;;;6.37;;
62790;SDS011;48830;53.426;10.300;2022-12-24T06:34:39;11.53;;;6.00;;
62790;SDS011;48830;53.426;10.300;2022-12-24T06:37:05;12.77;;;6.23;;
62790;SDS011;48830;53.426;10.300;2022-12-24T06:39:30;14.30;;;6.77;;
62790;SDS011;48830;53.426;10.300;2022-12-24T06:41:56;13.63;;;6.80;;
62790;SDS011;48830;53.426;10.300;2022-12-24T06:44:21;11.73;;;6.50;;
62790;SDS011;48830;53.426;10.300;2022-12-24T06:46:47;13.80;;;6.73;;
62790;SDS011;48830;53.426;10.300;2022-12-24T06:49:12;13.53;;;6.83;;
62790;SDS011;48830;53.426;10.300;2022-12-24T06:51:38;12.63;;;6.13;;
62790;SDS011;48830;53.426;10.300;2022-12-24T06:54:03;13.07;;;6.30;;
62790;SDS011;48830;53.426;10.300;2022-12-24T06:56:29;13.20;;;6.20;;
62790;SDS011;48830;53.426;10.300;2022-12-24T06:58:54;13.67;;;6.13;;
62790;SDS011;48830;53.426;10.300;2022-12-24T07:01:20;13.73;;;6.63;;
62790;SDS011;48830;53.426;10.300;2022-12-24T07:03:45;13.03;;;6.60;;
62790;SDS011;48830;53.426;10.300;2022-12-24T07:06:32;11.03;;;6.20;;
62790;SDS011;48830;53.426;10.300;2022-12-24T07:08:57;11.00;;;5.97;;
62790;SDS011;48830;53.426;10.300;2022-12-24T07:11:23;11.90;;;6.23;;
62790;SDS011;48830;53.426;10.300;2022-12-24T07:13:49;11.67;;;5.90;;
62790;SDS011;48830;53.426;10.300;2022-12-24T07:16:15;10.17;;;5.70;;
62790;SDS011;48830;53.426;10.300;2022-12-24T07:18:41;11.43;;;5.87;;
62790;SDS011;48830;53.426;10.300;2022-12-24T07:21:07;11.30;;;5.97;;
62790;SDS011;48830;53.426;10.300;2022-12-24T07:23:33;13.07;;;6.40;;
62790;SDS011;48830;53.426;10.300;2022-12-24T07:25:59;10.60;;;5.33;;
62790;SDS011;48830;53.426;10.300;2022-12-24T07:28:26;10.30;;;5.87;;
62790;SDS011;48830;53.426;10.300;2022-12-24T07:30:51;11.60;;;6.13;;
62790;SDS011;48830;53.426;10.300;2022-12-24T07:33:16;13.20;;;6.03;;
62790;SDS011;48830;53.426;10.300;2022-12-24T07:35:42;13.03;;;6.43;;
62790;SDS011;48830;53.426;10.300;2022-12-24T07:38:07;12.40;;;6.93;;
62790;SDS011;48830;53.426;10.300;2022-12-24T07:40:33;10.80;;;5.60;;
62790;SDS011;48830;53.426;10.300;2022-12-24T07:42:59;11.07;;;5.87;;
62790;SDS011;48830;53.426;10.300;2022-12-24T07:45:24;11.67;;;6.00;;
62790;SDS011;48830;53.426;10.300;2022-12-24T07:47:50;13.83;;;6.27;;
62790;SDS011;48830;53.426;10.300;2022-12-24T07:50:15;11.70;;;6.00;;
62790;SDS011;48830;53.426;10.300;2022-12-24T07:52:41;12.33;;;6.60;;
62790;SDS011;48830;53.426;10.300;2022-12-24T07:55:06;12.00;;;6.10;;
62790;SDS011;48830;53.426;10.300;2022-12-24T07:57:32;11.33;;;5.40;;
62790;SDS011;48830;53.426;10.300;2022-12-24T07:59:57;12.57;;;6.37;;
62790;SDS011;48830;53.426;10.300;2022-12-24T08:02:23;10.93;;;5.93;;
62790;SDS011;48830;53.426;10.300;2022-12-24T08:04:48;11.83;;;6.20;;
62790;SDS011;48830;53.426;10.300;2022-12-24T08:07:14;10.67;;;5.87;;
62790;SDS011;48830;53.426;10.300;2022-12-24T08:09:39;11.50;;;6.57;;
62790;SDS011;48830;53.426;10.300;2022-12-24T08:12:05;12.80;;;6.37;;
62790;SDS011;48830;53.426;10.300;2022-12-24T08:14:30;13.33;;;6.63;;
62790;SDS011;48830;53.426;10.300;2022-12-24T08:16:56;11.00;;;6.20;;
62790;SDS011;48830;53.426;10.300;2022-12-24T08:19:22;12.10;;;6.70;;
62790;SDS011;48830;53.426;10.300;2022-12-24T08:21:48;11.83;;;6.77;;
62790;SDS011;48830;53.426;10.300;2022-12-24T08:24:13;15.20;;;7.13;;
62790;SDS011;48830;53.426;10.300;2022-12-24T08:26:39;12.93;;;6.90;;
62790;SDS011;48830;53.426;10.300;2022-12-24T08:29:05;12.97;;;7.03;;
62790;SDS011;48830;53.426;10.300;2022-12-24T08:31:31;14.37;;;6.37;;
62790;SDS011;48830;53.426;10.300;2022-12-24T08:34:03;11.63;;;5.97;;
62790;SDS011;48830;53.426;10.300;2022-12-24T08:36:30;12.90;;;6.23;;
62790;SDS011;48830;53.426;10.300;2022-12-24T08:38:56;12.30;;;5.67;;
62790;SDS011;48830;53.426;10.300;2022-12-24T08:41:22;10.23;;;5.77;;
62790;SDS011;48830;53.426;10.300;2022-12-24T08:43:47;10.93;;;5.73;;
62790;SDS011;48830;53.426;10.300;2022-12-24T08:46:13;10.20;;;5.73;;
62790;SDS011;48830;53.426;10.300;2022-12-24T08:48:38;9.87;;;5.60;;
62790;SDS011;48830;53.426;10.300;2022-12-24T08:51:08;9.97;;;4.87;;
62790;SDS011;48830;53.426;10.300;2022-12-24T08:53:34;7.27;;;4.50;;
62790;SDS011;48830;53.426;10.300;2022-12-24T08:56:03;9.27;;;5.00;;
62790;SDS011;48830;53.426;10.300;2022-12-24T08:58:31;8.80;;;4.87;;
62790;SDS011;48830;53.426;10.300;2022-12-24T09:00:57;9.77;;;4.83;;
62790;SDS011;48830;53.426;10.300;2022-12-24T09:03:23;9.57;;;4.73;;
62790;SDS011;48830;53.426;10.300;2022-12-24T09:05:48;7.93;;;4.70;;
62790;SDS011;48830;53.426;10.300;2022-12-24T09:08:14;9.90;;;5.00;;
62790;SDS011;48830;53.426;10.300;2022-12-24T09:10:39;8.93;;;5.13;;
62790;SDS011;48830;53.426;10.300;2022-12-24T09:13:05;7.57;;;4.57;;
62790;SDS011;48830;53.426;10.300;2022-12-24T09:15:30;8.43;;;4.27;;
62790;SDS011;48830;53.426;10.300;2022-12-24T09:17:56;10.87;;;5.10;;
62790;SDS011;48830;53.426;10.300;2022-12-24T09:20:22;9.00;;;4.77;;
62790;SDS011;48830;53.426;10.300;2022-12-24T09:22:47;9.33;;;4.57;;
62790;SDS011;48830;53.426;10.300;2022-12-24T09:25:13;10.27;;;5.20;;
62790;SDS011;48830;53.426;10.300;2022-12-24T09:27:38;8.00;;;4.30;;
62790;SDS011;48830;53.426;10.300;2022-12-24T09:30:04;9.37;;;5.47;;
62790;SDS011;48830;53.426;10.300;2022-12-24T09:32:30;8.63;;;4.80;;
62790;SDS011;48830;53.426;10.300;2022-12-24T09:34:56;8.97;;;5.23;;
62790;SDS011;48830;53.426;10.300;2022-12-24T09:37:21;9.43;;;4.67;;
62790;SDS011;48830;53.426;10.300;2022-12-24T09:39:47;9.83;;;5.10;;
62790;SDS011;48830;53.426;10.300;2022-12-24T09:45:33;9.47;;;5.10;;
62790;SDS011;48830;53.426;10.300;2022-12-24T09:47:55;9.60;;;5.43;;
62790;SDS011;48830;53.426;10.300;2022-12-24T09:50:29;8.63;;;4.57;;
62790;SDS011;48830;53.426;10.300;2022-12-24T09:53:06;8.83;;;5.00;;
62790;SDS011;48830;53.426;10.300;2022-12-24T09:55:45;10.27;;;6.10;;
62790;SDS011;48830;53.426;10.300;2022-12-24T09:58:36;8.60;;;4.70;;
62790;SDS011;48830;53.426;10.300;2022-12-24T10:01:03;7.80;;;4.43;;
62790;SDS011;48830;53.426;10.300;2022-12-24T10:03:29;7.93;;;4.10;;
62790;SDS011;48830;53.426;10.300;2022-12-24T10:05:59;7.40;;;4.30;;
62790;SDS011;48830;53.426;10.300;2022-12-24T10:13:53;8.27;;;4.20;;
62790;SDS011;48830;53.426;10.300;2022-12-24T10:16:23;8.03;;;4.33;;
62790;SDS011;48830;53.426;10.300;2022-12-24T10:19:09;9.30;;;5.13;;
62790;SDS011;48830;53.426;10.300;2022-12-24T10:24:26;7.67;;;4.80;;
62790;SDS011;48830;53.426;10.300;2022-12-24T10:27:18;9.07;;;4.83;;
62790;SDS011;48830;53.426;10.300;2022-12-24T10:29:48;7.90;;;4.73;;
62790;SDS011;48830;53.426;10.300;2022-12-24T10:32:21;7.97;;;4.87;;
62790;SDS011;48830;53.426;10.300;2022-12-24T10:34:59;8.70;;;5.10;;
62790;SDS011;48830;53.426;10.300;2022-12-24T10:37:30;10.20;;;6.33;;
62790;SDS011;48830;53.426;10.300;2022-12-24T10:39:57;8.93;;;5.20;;
62790;SDS011;48830;53.426;10.300;2022-12-24T10:42:26;9.77;;;5.90;;
62790;SDS011;48830;53.426;10.300;2022-12-24T10:45:19;10.80;;;5.97;;
62790;SDS011;48830;53.426;10.300;2022-12-24T10:47:47;13.40;;;8.53;;
62790;SDS011;48830;53.426;10.300;2022-12-24T10:52:54;9.50;;;5.50;;
62790;SDS011;48830;53.426;10.300;2022-12-24T10:55:29;9.27;;;5.70;;
62790;SDS011;48830;53.426;10.300;2022-12-24T10:57:56;10.97;;;6.93;;
62790;SDS011;48830;53.426;10.300;2022-12-24T11:00:27;10.10;;;6.23;;
62790;SDS011;48830;53.426;10.300;2022-12-24T11:06:08;10.70;;;6.10;;
62790;SDS011;48830;53.426;10.300;2022-12-24T11:08:35;8.73;;;5.30;;
62790;SDS011;48830;53.426;10.300;2022-12-24T11:11:04;11.40;;;6.40;;
62790;SDS011;48830;53.426;10.300;2022-12-24T11:13:37;16.03;;;11.37;;
62790;SDS011;48830;53.426;10.300;2022-12-24T11:18:34;11.23;;;7.50;;
62790;SDS011;48830;53.426;10.300;2022-12-24T11:21:02;13.77;;;8.17;;
62790;SDS011;48830;53.426;10.300;2022-12-24T11:23:29;17.03;;;9.57;;
62790;SDS011;48830;53.426;10.300;2022-12-24T11:25:55;15.40;;;8.73;;
62790;SDS011;48830;53.426;10.300;2022-12-24T11:28:29;10.73;;;6.70;;
62790;SDS011;48830;53.426;10.300;2022-12-24T11:31:04;11.70;;;6.40;;
62790;SDS011;48830;53.426;10.300;2022-12-24T11:33:51;11.77;;;7.17;;
62790;SDS011;48830;53.426;10.300;2022-12-24T11:36:19;19.53;;;10.03;;
62790;SDS011;48830;53.426;10.300;2022-12-24T11:38:54;16.60;;;9.13;;
62790;SDS011;48830;53.426;10.300;2022-12-24T11:41:22;21.20;;;12.33;;
62790;SDS011;48830;53.426;10.300;2022-12-24T11:43:51;21.90;;;10.57;;
62790;SDS011;48830;53.426;10.300;2022-12-24T11:49:03;12.93;;;8.50;;
62790;SDS011;48830;53.426;10.300;2022-12-24T11:51:30;11.63;;;7.27;;
62790;SDS011;48830;53.426;10.300;2022-12-24T11:57:02;11.17;;;6.73;;
62790;SDS011;48830;53.426;10.300;2022-12-24T12:04:42;12.20;;;6.40;;
62790;SDS011;48830;53.426;10.300;2022-12-24T12:09:54;10.10;;;5.90;;
62790;SDS011;48830;53.426;10.300;2022-12-24T12:12:27;10.10;;;5.80;;
62790;SDS011;48830;53.426;10.300;2022-12-24T12:15:02;8.87;;;5.40;;
62790;SDS011;48830;53.426;10.300;2022-12-24T12:20:37;9.57;;;6.20;;
62790;SDS011;48830;53.426;10.300;2022-12-24T12:25:56;11.17;;;7.20;;
62790;SDS011;48830;53.426;10.300;2022-12-24T12:28:40;12.30;;;7.10;;
62790;SDS011;48830;53.426;10.300;2022-12-24T12:33:37;13.43;;;6.73;;
62790;SDS011;48830;53.426;10.300;2022-12-24T12:36:33;14.70;;;7.13;;
62790;SDS011;48830;53.426;10.300;2022-12-24T12:39:08;14.23;;;7.53;;
62790;SDS011;48830;53.426;10.300;2022-12-24T12:55:50;9.87;;;5.90;;
62790;SDS011;48830;53.426;10.300;2022-12-24T12:58:47;13.73;;;6.53;;
62790;SDS011;48830;53.426;10.300;2022-12-24T13:01:22;18.17;;;7.93;;
62790;SDS011;48830;53.426;10.300;2022-12-24T13:11:58;14.80;;;8.37;;
62790;SDS011;48830;53.426;10.300;2022-12-24T13:23:09;12.23;;;7.33;;
62790;SDS011;48830;53.426;10.300;2022-12-24T13:28:14;14.97;;;8.40;;
62790;SDS011;48830;53.426;10.300;2022-12-24T13:40:53;18.80;;;9.83;;
62790;SDS011;48830;53.426;10.300;2022-12-24T13:43:19;15.13;;;9.23;;
62790;SDS011;48830;53.426;10.300;2022-12-24T13:45:46;14.50;;;8.50;;
62790;SDS011;48830;53.426;10.300;2022-12-24T13:48:29;15.70;;;7.70;;
62790;SDS011;48830;53.426;10.300;2022-12-24T13:50:59;12.00;;;7.70;;
62790;SDS011;48830;53.426;10.300;2022-12-24T13:53:43;14.63;;;8.57;;
62790;SDS011;48830;53.426;10.300;2022-12-24T13:58:37;13.77;;;8.47;;
62790;SDS011;48830;53.426;10.300;2022-12-24T14:01:07;13.30;;;7.73;;
62790;SDS011;48830;53.426;10.300;2022-12-24T14:03:49;13.67;;;8.67;;
62790;SDS011;48830;53.426;10.300;2022-12-24T14:08:50;15.63;;;8.77;;
62790;SDS011;48830;53.426;10.300;2022-12-24T14:11:20;13.07;;;7.93;;
62790;SDS011;48830;53.426;10.300;2022-12-24T14:13:49;13.00;;;8.70;;
62790;SDS011;48830;53.426;10.300;2022-12-24T14:16:22;11.97;;;7.57;;
62790;SDS011;48830;53.426;10.300;2022-12-24T14:21:52;16.17;;;8.90;;
62790;SDS011;48830;53.426;10.300;2022-12-24T14:24:40;21.43;;;12.60;;
62790;SDS011;48830;53.426;10.300;2022-12-24T14:27:20;27.23;;;18.13;;
62790;SDS011;48830;53.426;10.300;2022-12-24T14:30:03;20.87;;;12.30;;
62790;SDS011;48830;53.426;10.300;2022-12-24T14:32:45;18.77;;;11.87;;
62790;SDS011;48830;53.426;10.300;2022-12-24T14:37:37;27.60;;;17.93;;
62790;SDS011;48830;53.426;10.300;2022-12-24T14:40:05;25.00;;;13.73;;
62790;SDS011;48830;53.426;10.300;2022-12-24T14:56:23;17.50;;;10.70;;
62790;SDS011;48830;53.426;10.300;2022-12-24T14:58:49;29.00;;;17.87;;
62790;SDS011;48830;53.426;10.300;2022-12-24T15:01:28;27.07;;;16.37;;
62790;SDS011;48830;53.426;10.300;2022-12-24T15:04:14;23.40;;;14.03;;
62790;SDS011;48830;53.426;10.300;2022-12-24T15:06:51;22.87;;;14.90;;
62790;SDS011;48830;53.426;10.300;2022-12-24T15:11:45;22.17;;;13.53;;
62790;SDS011;48830;53.426;10.300;2022-12-24T15:14:12;23.67;;;12.80;;
62790;SDS011;48830;53.426;10.300;2022-12-24T15:16:38;22.17;;;13.30;;
62790;SDS011;48830;53.426;10.300;2022-12-24T15:19:05;21.50;;;13.90;;
62790;SDS011;48830;53.426;10.300;2022-12-24T15:21:42;20.90;;;13.13;;
62790;SDS011;48830;53.426;10.300;2022-12-24T15:26:51;27.17;;;16.20;;
62790;SDS011;48830;53.426;10.300;2022-12-24T15:29:22;24.30;;;14.27;;
62790;SDS011;48830;53.426;10.300;2022-12-24T15:31:54;23.40;;;12.73;;
62790;SDS011;48830;53.426;10.300;2022-12-24T15:34:25;19.17;;;11.60;;
62790;SDS011;48830;53.426;10.300;2022-12-24T15:37:00;17.50;;;11.00;;
62790;SDS011;48830;53.426;10.300;2022-12-24T15:39:31;18.80;;;11.63;;
62790;SDS011;48830;53.426;10.300;2022-12-24T15:41:57;19.83;;;12.57;;
62790;SDS011;48830;53.426;10.300;2022-12-24T15:44:38;21.43;;;13.40;;
62790;SDS011;48830;53.426;10.300;2022-12-24T15:47:07;22.43;;;13.27;;
62790;SDS011;48830;53.426;10.300;2022-12-24T15:49:42;16.37;;;10.83;;
62790;SDS011;48830;53.426;10.300;2022-12-24T15:52:11;16.57;;;9.87;;
62790;SDS011;48830;53.426;10.300;2022-12-24T15:54:45;17.00;;;9.73;;
62790;SDS011;48830;53.426;10.300;2022-12-24T15:59:58;31.00;;;17.60;;
62790;SDS011;48830;53.426;10.300;2022-12-24T16:02:30;32.67;;;19.30;;
62790;SDS011;48830;53.426;10.300;2022-12-24T16:08:00;25.97;;;10.47;;
62790;SDS011;48830;53.426;10.300;2022-12-24T16:10:31;22.03;;;9.70;;
62790;SDS011;48830;53.426;10.300;2022-12-24T16:12:57;19.23;;;9.63;;
62790;SDS011;48830;53.426;10.300;2022-12-24T16:15:24;27.87;;;11.67;;
62790;SDS011;48830;53.426;10.300;2022-12-24T16:17:49;28.13;;;11.17;;
62790;SDS011;48830;53.426;10.300;2022-12-24T16:20:20;27.37;;;12.13;;
62790;SDS011;48830;53.426;10.300;2022-12-24T16:22:47;31.13;;;10.50;;
62790;SDS011;48830;53.426;10.300;2022-12-24T16:25:20;25.60;;;11.77;;
62790;SDS011;48830;53.426;10.300;2022-12-24T16:27:49;25.73;;;9.60;;
62790;SDS011;48830;53.426;10.300;2022-12-24T16:30:15;28.77;;;9.43;;
62790;SDS011;48830;53.426;10.300;2022-12-24T16:32:42;26.10;;;9.90;;
62790;SDS011;48830;53.426;10.300;2022-12-24T16:35:19;23.63;;;9.07;;
62790;SDS011;48830;53.426;10.300;2022-12-24T16:37:50;25.00;;;9.20;;
62790;SDS011;48830;53.426;10.300;2022-12-24T16:40:15;23.97;;;9.53;;
62790;SDS011;48830;53.426;10.300;2022-12-24T16:42:41;28.27;;;9.97;;
62790;SDS011;48830;53.426;10.300;2022-12-24T16:45:24;34.83;;;15.47;;
62790;SDS011;48830;53.426;10.300;2022-12-24T16:47:52;28.80;;;12.77;;
62790;SDS011;48830;53.426;10.300;2022-12-24T16:50:21;28.53;;;10.37;;
62790;SDS011;48830;53.426;10.300;2022-12-24T16:52:47;28.43;;;11.03;;
62790;SDS011;48830;53.426;10.300;2022-12-24T16:55:12;22.87;;;9.27;;